Latest Coastal Weather Observations for Maatsuyker Island

IDT60701

Issued at 12:03 am EDT Friday 20 October 2017 (issued every 10 minutes, with the page automatically refreshed every 10 minutes)

About coastal observations | Map of coastal stations | Coastal observations for TAS | Marine services | Other Formats
Station Details ID: 094041 Name: MAATSUYKER ISLAND LIGHTHOUSE Lat: -43.66 Lon: 146.27 Height: 146.5 m
Data from the previous 72 hours. | See also: Recent months at Maatsuyker Island
Date/Time
EDT
Temp
°C
Wind Pressure Rain since
9am
mm
Weather Cloud Vis
km
Sea
Height
m
Swell
Dir  Spd
kts
Gust
kts
hPa Trend Height
m
Period
s
Dir
20/12:00am 8.6 NNW 36 42 1011.3 - 7.8 - - - - - - -
 
Date/Time
EDT
Temp
°C
Wind Pressure Rain since
9am
mm
Weather Cloud Vis
km
Sea
Height
m
Swell
Dir  Spd
kts
Gust
kts
hPa Trend Height
m
Period
s
Dir
19/11:52pm 8.0 NNW 43 53 1010.6 - 7.6 - - - - - - -
19/11:48pm 8.2 NW 47 53 1010.3 - 6.6 - - - - - - -
19/11:41pm 10.2 NNW 36 46 1011.0 - 6.2 - - - - - - -
19/11:30pm 10.3 NNW 30 38 1011.0 - 6.2 - - - - - - -
19/11:02pm 10.2 NNW 28 38 1011.6 - 6.2 - - - - - - -
19/11:00pm 10.2 NNW 29 38 1011.6 - 6.2 - - - - - - -
19/10:30pm 10.2 NNW 31 38 1011.6 - 6.2 - - - - - - -
19/10:00pm 10.2 NNW 32 39 1011.9 - 6.2 - - - - - - -
19/09:30pm 10.1 NNW 33 39 1011.8 - 6.2 - - - - - - -
19/09:00pm 10.1 NNW 37 42 1011.6 - 6.2 - - - - - - -
19/08:30pm 10.2 NNW 35 40 1011.4 - 6.2 - - - - - - -
19/08:00pm 10.1 NNW 35 40 1011.2 - 6.2 - - - - - - -
19/07:30pm 10.1 NNW 36 40 1010.4 - 6.2 - - - - - - -
19/07:00pm 10.0 NW 36 42 1010.6 - 6.2 - - - - - - -
19/06:30pm 10.0 NW 38 41 1010.3 - 6.2 - - - - - - -
19/06:00pm 10.1 NW 35 39 1010.4 - 6.2 - - - - - - -
19/05:30pm 10.0 NW 35 38 1010.2 - 6.2 - - - - - - -
19/05:00pm 10.2 NW 32 35 1010.1 - 6.2 - - - - - - -
19/04:30pm 10.2 NW 33 37 1009.4 - 6.2 - - - - - - -
19/04:00pm 10.7 NW 32 35 1008.9 - 6.2 - - - - - - -
19/03:30pm 10.8 NW 32 35 1008.7 - 6.0 - - - - - - -
19/03:00pm 10.9 NW 27 31 1008.9 - 5.8 - - - - - - -
19/02:30pm 10.7 NNW 22 25 1008.8 - 5.8 - - - - - - -
19/02:00pm 10.9 NW 25 27 1008.8 - 5.4 - - - - - - -
19/01:30pm 11.0 NW 25 28 1008.4 - 5.0 - - - - - - -
19/01:00pm 11.1 NW 23 25 1008.1 - 5.0 - - - - - - -
19/12:30pm 11.2 NW 28 32 1008.2 - 4.6 - - - - - - -
19/12:00pm 11.5 NW 28 32 1008.3 - 4.2 - - - - - - -
19/11:42am 12.6 NW 22 28 1008.5 - 2.6 - - - - - - -
19/11:30am 13.6 N 18 23 1007.7 - 1.2 - - - - - - -
19/11:00am 13.8 NNW 22 28 1007.9 - 0.8 - - - - - - -
19/10:30am 14.0 NNW 19 25 1007.9 - 0.6 - - - - - - -
19/10:00am 14.1 N 16 22 1007.8 - 0.6 - - - - - - -
19/09:30am 13.8 N 18 29 1008.0 - 0.6 - - - - - - -
19/09:09am 13.4 N 18 30 1008.9 - 0.4 - - - - - - -
19/09:00am 13.1 N 16 25 1009.7 F 3.6 Rain Cloudy 3 <0.1 1.0 12 SW
19/08:47am 13.3 N 15 25 1009.6 - 3.0 - - - - - - -
19/08:30am 13.4 N 17 26 1009.8 - 2.4 - - - - - - -
19/08:00am 13.6 N 14 20 1010.1 - 1.2 - - - - - - -
19/07:30am 14.3 N 19 25 1010.1 - 0.6 - - - - - - -
19/07:00am 14.7 NNW 12 17 1010.4 - 0.0 - - - - - - -
19/06:30am 14.8 NNW 13 16 1010.0 - 0.0 - - - - - - -
19/06:00am 15.3 NNW 15 19 1009.4 F 0.0 Distant precip. Cloudy 16 <0.1 1.0 - SW
19/05:30am 15.0 NNW 18 22 1009.7 - 0.0 - - - - - - -
19/05:00am 14.5 NNW 17 21 1010.3 - 0.0 - - - - - - -
19/04:30am 13.7 NNW 14 21 1010.8 - 0.0 - - - - - - -
19/04:00am 13.6 NNW 17 24 1010.9 - 0.0 - - - - - - -
19/03:30am 14.5 NNW 19 24 1011.3 - 0.0 - - - - - - -
19/03:00am 16.2 NNW 22 28 1011.8 - 0.0 - - - - - - -
19/02:30am 15.6 NNW 18 23 1011.8 - 0.0 - - - - - - -
19/02:00am 14.8 NNW 23 28 1011.8 - 0.0 - - - - - - -
19/01:30am 14.6 NNW 26 31 1012.3 - 0.0 - - - - - - -
19/01:00am 14.0 NNW 30 36 1012.6 - 0.0 - - - - - - -
19/12:30am 14.7 NW 32 40 1012.5 - 0.0 - - - - - - -
19/12:20am 16.6 WNW 30 37 1012.9 - 0.0 - - - - - - -
19/12:16am 17.7 WNW 16 30 1013.1 - 0.0 - - - - - - -
19/12:00am 21.9 N 14 17 1012.7 - 0.0 - - - - - - -
 
Date/Time
EDT
Temp
°C
Wind Pressure Rain since
9am
mm
Weather Cloud Vis
km
Sea
Height
m
Swell
Dir  Spd
kts
Gust
kts
hPa Trend Height
m
Period
s
Dir
18/11:30pm 21.6 NNW 18 23 1012.6 - 0.0 - - - - - - -
18/11:00pm 20.2 NNW 21 26 1012.7 - 0.0 - - - - - - -
18/10:30pm 17.7 NNW 23 33 1012.8 - 0.0 - - - - - - -
18/10:12pm 19.1 NW 17 21 1013.8 - 0.0 - - - - - - -
18/10:00pm 24.6 N 14 18 1013.2 - 0.0 - - - - - - -
18/09:30pm 24.9 N 12 17 1013.4 - 0.0 - - - - - - -
18/09:00pm 25.0 N 15 20 1013.5 - 0.0 - - - - - - -
18/08:30pm 24.3 N 14 18 1013.5 - 0.0 - - - - - - -
18/08:00pm 23.8 N 17 20 1013.4 - 0.0 - - - - - - -
18/07:30pm 24.0 N 17 22 1013.4 - 0.0 - - - - - - -
18/07:00pm 23.7 NNW 18 23 1013.4 - 0.0 - - - - - - -
18/06:30pm 24.0 NNW 19 27 1013.6 - 0.0 - - - - - - -
18/06:00pm 24.4 NNW 17 24 1013.6 - 0.0 - - - - - - -
18/05:46pm 24.5 NNW 16 26 1013.6 - 0.0 - - - - - - -
18/05:30pm 25.5 NNW 16 23 1013.7 - 0.0 - - - - - - -
18/05:18pm 25.3 NNW 16 26 1013.8 - 0.0 - - - - - - -
18/05:00pm 24.5 NNW 16 23 1014.0 - 0.0 - - - - - - -
18/04:30pm 26.3 NNW 12 19 1014.5 - 0.0 - - - - - - -
18/04:00pm 26.6 NNW 8 12 1014.8 - 0.0 - - - - - - -
18/03:30pm 25.7 N 10 13 1015.3 - 0.0 - - - - - - -
18/03:00pm 25.1 NNW 10 14 1015.9 - 0.0 - - - - - - -
18/02:30pm 22.8 NNW 10 14 1016.0 - 0.0 - - - - - - -
18/02:00pm 25.9 N 12 17 1016.7 - 0.0 - - - - - - -
18/01:30pm 27.0 N 13 16 1016.8 - 0.0 - - - - - - -
18/01:00pm 25.5 N 13 18 1017.1 - 0.0 - - - - - - -
18/12:30pm 24.4 N 16 19 1017.4 - 0.0 - - - - - - -
18/12:00pm 23.8 NNW 17 23 1017.8 - 0.0 - - - - - - -
18/11:30am 23.7 N 17 23 1017.8 - 0.0 - - - - - - -
18/11:00am 23.8 N 16 21 1018.0 - 0.0 - - - - - - -
18/10:30am 23.0 N 14 20 1018.4 - 0.0 - - - - - - -
18/10:00am 22.6 N 15 20 1018.5 - 0.0 - - - - - - -
18/09:30am 22.1 N 15 20 1018.7 - 0.0 - - - - - - -
18/09:00am 21.3 N 16 21 1018.7 F 0.2 Fine Mostly cloudy 20 <0.1 1.0 - SW
18/08:30am 21.2 N 15 19 1019.0 - 0.2 - - - - - - -
18/08:00am 20.5 N 16 21 1019.0 - 0.2 - - - - - - -
18/07:30am 20.5 N 18 24 1018.8 - 0.2 - - - - - - -
18/07:00am 20.3 N 18 23 1018.7 - 0.2 - - - - - - -
18/06:30am 20.4 N 17 21 1018.5 - 0.2 - - - - - - -
18/06:00am 20.0 N 16 22 1018.6 F 0.2 Fine Mostly cloudy 18 <0.1 0.5 - SW
18/05:30am 20.0 N 16 22 1018.7 - 0.2 - - - - - - -
18/05:00am 20.2 N 17 25 1018.6 - 0.2 - - - - - - -
18/04:30am 20.2 N 15 18 1018.7 - 0.2 - - - - - - -
18/04:00am 20.1 N 14 18 1018.6 - 0.2 - - - - - - -
18/03:30am 19.5 N 14 18 1018.4 - 0.2 - - - - - - -
18/03:00am 21.1 N 13 17 1018.3 - 0.2 - - - - - - -
18/02:30am 21.1 N 12 17 1018.2 - 0.2 - - - - - - -
18/02:00am 21.3 N 11 14 1018.3 - 0.2 - - - - - - -
18/01:30am 21.4 N 11 17 1018.5 - 0.2 - - - - - - -
18/01:00am 21.4 N 14 21 1018.7 - 0.2 - - - - - - -
18/12:30am 21.4 N 12 16 1019.0 - 0.2 - - - - - - -
18/12:00am 21.2 N 11 17 1019.2 - 0.2 - - - - - - -
 
Date/Time
EDT
Temp
°C
Wind Pressure Rain since
9am
mm
Weather Cloud Vis
km
Sea
Height
m
Swell
Dir  Spd
kts
Gust
kts
hPa Trend Height
m
Period
s
Dir
17/11:30pm 21.1 N 12 16 1019.4 - 0.2 - - - - - - -
17/11:00pm 21.8 N 13 18 1019.8 - 0.2 - - - - - - -
17/10:30pm 22.0 N 13 21 1019.3 - 0.2 - - - - - - -
17/10:00pm 22.3 N 13 19 1019.6 - 0.2 - - - - - - -
17/09:30pm 22.4 N 14 20 1020.1 - 0.2 - - - - - - -
17/09:00pm 22.2 N 15 20 1020.3 - 0.2 - - - - - - -
17/08:30pm 22.3 N 16 21 1020.3 - 0.2 - - - - - - -
17/08:00pm 22.2 NNW 18 25 1019.9 - 0.2 - - - - - - -
17/07:30pm 22.4 NNW 18 23 1019.8 - 0.2 - - - - - - -
17/07:00pm 22.4 NNW 16 23 1019.6 - 0.2 - - - - - - -
17/06:30pm 22.6 N 18 23 1019.4 - 0.2 - - - - - - -
17/06:00pm 22.9 NNW 21 28 1019.4 - 0.2 - - - - - - -
17/05:48pm 22.8 NNW 18 28 1019.5 - 0.2 - - - - - - -
17/05:30pm 22.9 NNW 16 23 1019.5 - 0.2 - - - - - - -
17/05:00pm 23.0 NNW 15 19 1019.6 - 0.2 - - - - - - -
17/04:30pm 23.1 NNW 15 19 1019.8 - 0.2 - - - - - - -
17/04:00pm 22.2 NNW 13 17 1020.0 - 0.2 - - - - - - -
17/03:30pm 21.8 NW 9 12 1020.4 - 0.2 - - - - - - -
17/03:00pm 21.6 NNW 9 11 1020.5 - 0.2 - - - - - - -
17/02:30pm 21.6 N 10 12 1020.6 - 0.2 - - - - - - -
17/02:00pm 20.0 NNW 7 9 1021.1 - 0.2 - - - - - - -
17/01:30pm 20.1 N 8 9 1021.0 - 0.2 - - - - - - -
17/01:00pm 19.4 N 8 10 1021.1 - 0.2 - - - - - - -
17/12:30pm 20.0 NNW 9 12 1021.5 - 0.2 - - - - - - -
17/12:00pm 19.2 N 10 13 1021.7 - 0.2 - - - - - - -
17/11:30am 18.7 N 11 15 1021.6 - 0.0 - - - - - - -
17/11:00am 17.2 N 11 15 1021.7 - 0.0 - - - - - - -
17/10:30am 16.3 N 12 16 1021.7 - 0.0 - - - - - - -
17/10:00am 15.2 N 14 17 1021.8 - 0.0 - - - - - - -
17/09:30am 13.7 N 12 15 1021.9 - 0.0 - - - - - - -
17/09:00am 10.7 N 10 13 1022.3 R 0.0 Fog Partly cloudy 0 - - - -
17/08:30am 10.0 CALM 0 0 1022.1 - 0.0 - - - - - - -
17/08:00am 9.8 NNW 3 5 1022.0 - 0.0 - - - - - - -
17/07:30am 9.7 W 2 4 1022.0 - 0.0 - - - - - - -
17/07:00am 9.3 NNE 1 3 1021.7 - 0.0 - - - - - - -
17/06:30am 9.5 NNE 2 5 1021.6 - 0.0 - - - - - - -
17/06:00am 9.5 SSE 4 6 1021.5 F 0.0 Fog Fog 0 <0.1 - - -
17/05:30am 9.5 W 3 5 1021.2 - 0.0 - - - - - - -
17/05:00am 9.7 NNW 5 7 1021.3 - 0.0 - - - - - - -
17/04:30am 9.7 NW 11 12 1021.2 - 0.0 - - - - - - -
17/04:00am 9.8 WNW 11 13 1021.6 - 0.0 - - - - - - -
17/03:30am 9.6 NW 11 13 1021.3 - 0.0 - - - - - - -
17/03:00am 9.8 NW 9 11 1021.4 - 0.0 - - - - - - -
17/02:30am 10.0 NW 9 11 1021.4 - 0.0 - - - - - - -
17/02:00am 10.1 N 6 7 1021.6 - 0.0 - - - - - - -
17/01:30am 10.3 N 7 8 1022.0 - 0.0 - - - - - - -
17/01:00am 10.9 N 7 8 1022.3 - 0.0 - - - - - - -
17/12:30am 11.1 N 8 10 1022.6 - 0.0 - - - - - - -

Other Formats:

Comma delimited format used in spreadsheet applications
http://www.bom.gov.au/fwo/IDT60701/IDT60701.94962.axf

JavaScript Object Notation format (JSON) in row-major order
http://www.bom.gov.au/fwo/IDT60701/IDT60701.94962.json